Time;durP1;ratioP1;P1;durP2;ratioP2;P2;SDS_P1;SDS_P2;PMS_P1;PMS_P2;Temp;Humidity;BMP_temperature;BMP_pressure;BME280_temperature;BME280_humidity;BME280_pressure;Samples;Min_cycle;Max_cycle;Signal;HPM_P1;HPM_P2
2022/08/19 00:00:09;;;;;;;5.60;4.15;;;16.10;99.90;;;;;;5128387;27;20042;-68
2022/08/19 00:02:35;;;;;;;6.32;4.63;;;16.10;99.90;;;;;;5140059;27;20046;-68
2022/08/19 00:05:01;;;;;;;7.35;5.05;;;16.10;99.90;;;;;;5120721;27;20343;-69
2022/08/19 00:07:26;;;;;;;9.15;4.72;;;16.00;99.90;;;;;;5146849;27;20037;-68
2022/08/19 00:09:53;;;;;;;5.68;4.35;;;16.10;99.90;;;;;;5125529;27;20041;-69
2022/08/19 00:12:19;;;;;;;7.55;4.18;;;16.00;99.90;;;;;;5145774;27;20158;-68
2022/08/19 00:14:44;;;;;;;8.82;4.00;;;16.00;99.90;;;;;;5145209;27;20482;-69
2022/08/19 00:17:10;;;;;;;6.00;4.05;;;15.90;99.90;;;;;;5126070;27;20039;-68
2022/08/19 00:19:36;;;;;;;7.07;4.30;;;15.90;99.90;;;;;;5144686;27;20495;-68
2022/08/19 00:22:03;;;;;;;6.25;4.53;;;15.90;99.90;;;;;;5127336;27;20045;-68
2022/08/19 00:24:29;;;;;;;6.53;4.38;;;15.90;99.90;;;;;;5139400;27;20046;-68
2022/08/19 00:26:56;;;;;;;6.05;4.10;;;15.80;99.90;;;;;;5127752;27;20038;-68
2022/08/19 00:29:24;;;;;;;7.50;4.47;;;15.80;99.90;;;;;;5143578;27;20043;-68
2022/08/19 00:31:54;;;;;;;8.35;4.40;;;15.80;99.90;;;;;;5127500;27;20078;-68
2022/08/19 00:34:20;;;;;;;7.32;4.82;;;15.80;99.90;;;;;;5142181;27;20054;-69
2022/08/19 00:36:46;;;;;;;7.45;4.43;;;15.70;99.90;;;;;;5143660;27;20077;-68
2022/08/19 00:39:16;;;;;;;8.48;4.50;;;15.70;99.90;;;;;;5125869;27;20039;-68
2022/08/19 00:41:44;;;;;;;6.78;4.85;;;15.70;99.90;;;;;;5126250;27;20665;-68
2022/08/19 00:44:24;;;;;;;7.97;5.13;;;15.70;99.90;;;;;;5143089;27;20829;-69
2022/08/19 00:46:51;;;;;;;9.50;5.32;;;15.80;99.90;;;;;;5143257;27;20050;-68
2022/08/19 00:49:35;;;;;;;7.95;4.88;;;15.70;99.90;;;;;;5128185;27;20055;-69
2022/08/19 00:52:09;;;;;;;8.13;5.13;;;15.70;99.90;;;;;;5140873;27;20571;-69
2022/08/19 00:54:36;;;;;;;7.30;4.93;;;15.70;99.90;;;;;;5126714;27;20043;-68
2022/08/19 00:57:06;;;;;;;9.52;5.72;;;15.70;99.90;;;;;;5124057;27;20047;-68
2022/08/19 00:59:37;;;;;;;9.65;5.53;;;15.70;99.90;;;;;;5145542;27;20038;-68
2022/08/19 01:02:04;;;;;;;7.78;5.10;;;15.70;99.90;;;;;;5142702;27;20047;-68
2022/08/19 01:04:29;;;;;;;6.82;5.60;;;15.70;99.90;;;;;;5122249;27;20172;-68
2022/08/19 01:06:57;;;;;;;8.85;5.20;;;15.70;99.90;;;;;;5142220;27;20542;-68
2022/08/19 01:09:22;;;;;;;6.88;5.10;;;15.70;99.90;;;;;;5127567;27;20081;-68
2022/08/19 01:11:49;;;;;;;8.20;5.65;;;15.70;99.90;;;;;;5142056;27;20063;-68
2022/08/19 01:14:16;;;;;;;9.85;5.80;;;15.70;99.90;;;;;;5145707;27;20070;-68
2022/08/19 01:16:43;;;;;;;9.18;5.13;;;15.70;99.90;;;;;;5124925;27;20052;-68
2022/08/19 01:19:30;;;;;;;8.27;5.68;;;15.60;99.90;;;;;;5123091;27;20051;-68
2022/08/19 01:22:10;;;;;;;9.48;5.60;;;15.60;99.90;;;;;;5122149;27;20493;-68
2022/08/19 01:24:36;;;;;;;9.90;5.60;;;15.50;99.90;;;;;;5125360;27;20394;-68
2022/08/19 01:27:04;;;;;;;7.18;5.80;;;15.50;99.90;;;;;;5123911;27;20039;-68
2022/08/19 01:29:30;;;;;;;7.22;5.55;;;15.50;99.90;;;;;;5126390;27;20045;-68
2022/08/19 01:31:56;;;;;;;8.75;5.85;;;15.40;99.90;;;;;;5123784;27;20047;-68
2022/08/19 01:34:22;;;;;;;8.52;5.55;;;15.40;99.90;;;;;;5141950;27;20070;-68
2022/08/19 01:36:48;;;;;;;7.88;5.75;;;15.40;99.90;;;;;;5142005;27;20035;-68
2022/08/19 01:39:17;;;;;;;7.65;5.57;;;15.30;99.90;;;;;;5144806;27;20034;-69
2022/08/19 01:41:43;;;;;;;9.25;5.97;;;15.30;99.90;;;;;;5142527;27;20042;-68
2022/08/19 01:44:12;;;;;;;10.38;6.10;;;15.30;99.90;;;;;;5144086;27;20118;-68
2022/08/19 01:46:39;;;;;;;10.60;6.32;;;15.40;99.90;;;;;;5141687;27;20058;-68
2022/08/19 01:49:06;;;;;;;10.30;6.97;;;15.30;99.90;;;;;;5141321;27;20043;-68
2022/08/19 01:51:32;;;;;;;9.25;6.78;;;15.30;99.90;;;;;;5143596;27;20412;-69
2022/08/19 01:53:58;;;;;;;7.45;6.10;;;15.30;99.90;;;;;;5142886;27;20538;-69
2022/08/19 01:56:25;;;;;;;8.60;6.45;;;15.20;99.90;;;;;;5142766;27;20035;-69
2022/08/19 01:58:58;;;;;;;11.77;6.60;;;15.30;99.90;;;;;;5125625;27;20493;-69
2022/08/19 02:01:24;;;;;;;9.70;6.53;;;15.20;99.90;;;;;;5141992;27;20122;-68
2022/08/19 02:03:51;;;;;;;10.27;6.68;;;15.20;99.90;;;;;;5143784;27;20478;-68
2022/08/19 02:06:17;;;;;;;8.70;5.95;;;15.10;99.90;;;;;;5142107;27;20454;-69
2022/08/19 02:08:45;;;;;;;8.40;6.18;;;15.10;99.90;;;;;;5144329;27;20077;-68
2022/08/19 02:11:35;;;;;;;12.18;7.05;;;15.10;99.90;;;;;;5137243;27;20126;-69
2022/08/19 02:14:03;;;;;;;9.43;7.07;;;15.10;99.90;;;;;;5141961;27;20039;-68
2022/08/19 02:16:30;;;;;;;9.90;7.40;;;15.20;99.90;;;;;;5123792;27;20417;-68
2022/08/19 02:18:56;;;;;;;8.73;6.88;;;15.10;99.90;;;;;;5141334;27;20034;-68
2022/08/19 02:21:23;;;;;;;9.98;7.25;;;15.10;99.90;;;;;;5141228;27;20062;-68
2022/08/19 02:23:50;;;;;;;11.85;8.00;;;15.10;99.90;;;;;;5125269;27;20043;-68
2022/08/19 02:26:18;;;;;;;10.18;6.90;;;15.10;99.90;;;;;;5141758;27;20067;-69
2022/08/19 02:28:44;;;;;;;9.57;6.70;;;15.10;99.90;;;;;;5125378;27;20034;-68
2022/08/19 02:31:15;;;;;;;9.40;7.00;;;15.10;99.90;;;;;;5122649;28;20047;-68
2022/08/19 02:33:41;;;;;;;10.05;6.82;;;15.00;99.90;;;;;;5136972;27;20031;-68
2022/08/19 02:36:09;;;;;;;9.05;6.82;;;14.90;99.90;;;;;;5135889;27;20543;-68
2022/08/19 02:38:36;;;;;;;8.82;6.70;;;14.90;99.90;;;;;;5118379;28;20050;-68
2022/08/19 02:41:25;;;;;;;11.18;7.28;;;14.90;99.90;;;;;;5125378;27;20046;-68
2022/08/19 02:43:50;;;;;;;10.75;7.03;;;14.90;99.90;;;;;;5120951;27;20038;-68
2022/08/19 02:46:26;;;;;;;11.82;7.90;;;14.90;99.90;;;;;;5125178;27;20402;-68
2022/08/19 02:48:55;;;;;;;11.65;8.38;;;14.90;99.90;;;;;;5137079;27;20039;-69
2022/08/19 02:51:39;;;;;;;12.50;8.57;;;14.90;99.90;;;;;;5121713;27;20049;-68
2022/08/19 02:54:06;;;;;;;11.90;8.07;;;15.00;99.90;;;;;;5118344;28;20414;-68
2022/08/19 02:56:35;;;;;;;11.15;8.52;;;15.00;99.90;;;;;;5143981;27;20386;-68
2022/08/19 02:59:00;;;;;;;11.88;8.20;;;15.00;99.90;;;;;;5122465;27;20041;-68
2022/08/19 03:01:32;;;;;;;11.48;8.35;;;14.90;99.90;;;;;;5125383;27;20409;-68
2022/08/19 03:04:00;;;;;;;12.15;8.73;;;14.80;99.90;;;;;;5143220;27;20043;-68
2022/08/19 03:06:27;;;;;;;11.05;8.02;;;14.80;99.90;;;;;;5127275;27;20053;-68
2022/08/19 03:08:53;;;;;;;11.90;7.97;;;14.80;99.90;;;;;;5147310;27;20110;-68
2022/08/19 03:11:21;;;;;;;13.45;9.02;;;14.80;99.90;;;;;;5127310;27;20093;-69
2022/08/19 03:13:48;;;;;;;12.95;8.40;;;14.80;99.90;;;;;;5146372;27;20078;-69
2022/08/19 03:16:14;;;;;;;12.18;8.70;;;14.80;99.90;;;;;;5146594;27;20047;-69
2022/08/19 03:18:40;;;;;;;11.50;8.27;;;14.80;99.90;;;;;;5140143;27;20036;-68
2022/08/19 03:21:06;;;;;;;10.73;8.00;;;14.80;99.90;;;;;;5128587;27;20129;-68
2022/08/19 03:23:32;;;;;;;12.07;7.93;;;14.70;99.90;;;;;;5125841;27;20039;-68
2022/08/19 03:25:58;;;;;;;13.27;8.02;;;14.80;99.90;;;;;;5147458;27;20520;-68
2022/08/19 03:28:24;;;;;;;12.13;7.60;;;14.80;99.90;;;;;;5145196;27;20035;-68
2022/08/19 03:31:05;;;;;;;11.82;8.02;;;14.80;99.90;;;;;;5128521;27;20047;-68
2022/08/19 03:33:32;;;;;;;11.75;8.02;;;14.90;99.90;;;;;;5139434;27;20034;-68
2022/08/19 03:36:07;;;;;;;11.07;7.80;;;14.80;99.90;;;;;;5121754;27;20046;-68
2022/08/19 03:38:33;;;;;;;12.75;8.27;;;14.90;99.90;;;;;;5123057;27;20553;-68
2022/08/19 03:41:06;;;;;;;11.82;7.65;;;14.90;99.90;;;;;;5146886;27;20043;-68
2022/08/19 03:43:33;;;;;;;11.43;7.88;;;14.90;99.90;;;;;;5122572;27;20035;-68
2022/08/19 03:46:15;;;;;;;11.77;8.20;;;14.80;99.90;;;;;;5147151;27;20050;-68
2022/08/19 03:48:43;;;;;;;10.75;7.53;;;14.80;99.90;;;;;;5141530;27;20035;-69
2022/08/19 03:51:18;;;;;;;10.35;7.20;;;14.80;99.90;;;;;;5123883;27;20130;-68
2022/08/19 03:53:44;;;;;;;12.23;7.55;;;14.70;99.90;;;;;;5145371;27;20039;-68
2022/08/19 03:56:10;;;;;;;10.00;7.72;;;14.70;99.90;;;;;;5145528;27;20038;-68
2022/08/19 03:58:37;;;;;;;9.82;7.50;;;14.70;99.90;;;;;;5126720;27;20545;-68
2022/08/19 04:01:08;;;;;;;13.85;8.27;;;14.70;99.90;;;;;;5145579;27;20035;-68
2022/08/19 04:03:35;;;;;;;12.75;8.32;;;14.70;99.90;;;;;;5125154;27;20065;-68
2022/08/19 04:06:16;;;;;;;11.63;8.25;;;14.70;99.90;;;;;;5125774;27;20479;-68
2022/08/19 04:08:45;;;;;;;14.00;8.23;;;14.80;99.90;;;;;;5143939;27;20159;-68
2022/08/19 04:11:14;;;;;;;14.23;8.57;;;14.80;99.90;;;;;;5145690;27;20087;-68
2022/08/19 04:13:45;;;;;;;11.80;8.25;;;14.80;99.90;;;;;;5144317;27;20031;-68
2022/08/19 04:16:14;;;;;;;14.73;9.13;;;14.80;99.90;;;;;;5126596;27;20380;-68
2022/08/19 04:18:40;;;;;;;11.80;8.25;;;14.80;99.90;;;;;;5144032;27;20082;-68
2022/08/19 04:21:07;;;;;;;12.45;8.35;;;14.80;99.90;;;;;;5125229;27;20051;-68
2022/08/19 04:23:35;;;;;;;12.18;8.02;;;14.80;99.90;;;;;;5126704;27;20367;-68
2022/08/19 04:26:01;;;;;;;15.93;9.80;;;14.80;99.90;;;;;;5126261;27;20426;-68
2022/08/19 04:28:28;;;;;;;12.38;8.65;;;14.80;99.90;;;;;;5126917;27;20042;-68
2022/08/19 04:30:54;;;;;;;12.48;9.05;;;14.80;99.90;;;;;;5124663;27;20049;-68
2022/08/19 04:33:24;;;;;;;13.00;9.13;;;14.80;99.90;;;;;;5145652;27;20027;-68
2022/08/19 04:35:52;;;;;;;15.25;9.43;;;14.80;99.90;;;;;;5119674;27;20047;-68
2022/08/19 04:38:22;;;;;;;14.95;9.50;;;14.90;99.90;;;;;;5139048;27;20035;-68
2022/08/19 04:43:37;;;;;;;12.17;8.57;;;15.10;99.90;;;;;;5142299;27;20486;-68
2022/08/19 04:46:10;;;;;;;13.95;9.43;;;14.90;99.90;;;;;;5144001;27;20298;-68
2022/08/19 04:48:37;;;;;;;13.48;9.88;;;14.90;99.90;;;;;;5143175;27;20483;-68
2022/08/19 04:51:07;;;;;;;13.85;9.35;;;14.90;99.90;;;;;;5123541;27;20382;-68
2022/08/19 04:53:35;;;;;;;15.02;9.65;;;14.90;99.90;;;;;;5142397;27;20034;-68
2022/08/19 04:56:06;;;;;;;12.52;9.10;;;15.00;99.90;;;;;;5144507;27;20035;-68
2022/08/19 04:58:33;;;;;;;14.43;10.00;;;15.00;99.90;;;;;;5143525;27;20039;-68
2022/08/19 05:00:59;;;;;;;15.23;9.73;;;15.10;99.90;;;;;;5125171;27;20085;-68
2022/08/19 05:03:26;;;;;;;16.23;10.18;;;15.20;99.90;;;;;;5140966;27;20460;-68
2022/08/19 05:05:51;;;;;;;13.45;9.98;;;15.20;99.90;;;;;;5143044;27;20084;-68
2022/08/19 05:08:20;;;;;;;14.43;9.80;;;15.20;99.90;;;;;;5126928;27;20038;-68
2022/08/19 05:10:48;;;;;;;17.83;10.32;;;15.20;99.90;;;;;;5141628;27;20050;-68
2022/08/19 05:13:16;;;;;;;15.00;9.68;;;15.20;99.90;;;;;;5145622;27;20070;-68
2022/08/19 05:15:43;;;;;;;16.20;10.45;;;15.20;99.90;;;;;;5119984;27;20057;-68
2022/08/19 05:23:38;;;;;;;14.20;9.68;;;15.30;99.90;;;;;;5137699;27;20394;-68
2022/08/19 05:26:04;;;;;;;16.65;10.32;;;15.30;99.90;;;;;;5143741;27;20039;-69
2022/08/19 05:28:30;;;;;;;17.23;10.63;;;15.30;99.90;;;;;;5143114;27;20039;-68
2022/08/19 05:30:56;;;;;;;15.73;10.57;;;15.30;99.90;;;;;;5125486;27;20164;-68
2022/08/19 05:33:22;;;;;;;16.77;10.13;;;15.40;99.90;;;;;;5142961;27;20505;-68
2022/08/19 05:35:49;;;;;;;16.80;11.25;;;15.50;99.90;;;;;;5142806;27;20028;-68
2022/08/19 05:38:18;;;;;;;15.80;10.40;;;15.50;99.90;;;;;;5144482;27;20031;-68
2022/08/19 05:40:47;;;;;;;15.18;11.07;;;15.60;99.90;;;;;;5142524;27;20042;-69
2022/08/19 05:43:17;;;;;;;15.80;10.65;;;15.70;99.90;;;;;;5126029;27;20038;-68
2022/08/19 05:45:43;;;;;;;15.57;10.30;;;15.70;99.90;;;;;;5123181;27;20031;-68
2022/08/19 05:48:11;;;;;;;17.35;11.68;;;15.70;99.90;;;;;;5144768;27;20397;-68
2022/08/19 05:50:40;;;;;;;17.98;11.38;;;15.80;99.90;;;;;;5126916;27;20091;-68
2022/08/19 05:53:08;;;;;;;17.23;12.00;;;15.90;99.90;;;;;;5140370;27;20043;-68
2022/08/19 05:55:35;;;;;;;16.85;11.52;;;16.00;99.90;;;;;;5119149;27;20494;-68
2022/08/19 05:58:01;;;;;;;18.17;10.88;;;16.00;99.90;;;;;;5126413;27;20039;-68
2022/08/19 06:00:27;;;;;;;18.17;11.70;;;16.10;99.90;;;;;;5122675;27;20092;-68
2022/08/19 06:03:02;;;;;;;18.02;10.93;;;16.20;99.90;;;;;;5125135;27;20041;-68
2022/08/19 06:05:27;;;;;;;18.70;11.65;;;16.30;99.90;;;;;;5125377;27;20386;-68
2022/08/19 06:07:54;;;;;;;16.35;11.25;;;16.40;99.90;;;;;;5124435;27;20039;-68
2022/08/19 06:10:21;;;;;;;18.92;11.82;;;16.30;99.90;;;;;;5142579;27;20063;-68
2022/08/19 06:12:47;;;;;;;17.42;11.50;;;16.50;99.90;;;;;;5143270;27;20050;-68
2022/08/19 06:15:14;;;;;;;17.75;11.63;;;16.50;99.90;;;;;;5141975;27;20039;-68
2022/08/19 06:17:47;;;;;;;17.10;10.90;;;16.60;99.90;;;;;;5141945;27;20106;-68
2022/08/19 06:20:14;;;;;;;19.10;11.30;;;16.70;99.90;;;;;;5138743;27;20062;-69
2022/08/19 06:22:46;;;;;;;16.55;11.55;;;16.80;99.90;;;;;;5123398;27;20035;-68
2022/08/19 06:25:14;;;;;;;16.70;11.05;;;16.80;99.90;;;;;;5143128;27;20038;-69
2022/08/19 06:27:40;;;;;;;17.35;11.60;;;17.00;99.90;;;;;;5122937;27;20050;-68
2022/08/19 06:30:06;;;;;;;16.42;11.65;;;17.00;99.90;;;;;;5125106;27;20060;-68
2022/08/19 06:32:32;;;;;;;17.98;10.95;;;17.10;99.90;;;;;;5140852;27;20066;-68
2022/08/19 06:34:57;;;;;;;17.48;11.50;;;17.20;99.90;;;;;;5121010;27;20070;-69
2022/08/19 06:37:23;;;;;;;18.00;12.23;;;17.30;99.90;;;;;;5144776;27;20501;-69
2022/08/19 06:39:50;;;;;;;17.33;11.32;;;17.50;99.90;;;;;;5148124;27;20035;-69
2022/08/19 06:42:18;;;;;;;17.77;12.10;;;17.70;99.90;;;;;;5127108;27;20498;-69
2022/08/19 06:44:47;;;;;;;16.85;11.20;;;17.80;99.90;;;;;;5147417;27;20121;-69
2022/08/19 06:47:19;;;;;;;17.50;12.13;;;17.90;99.90;;;;;;5127650;27;20313;-70
2022/08/19 06:49:45;;;;;;;16.90;12.57;;;18.00;99.90;;;;;;5144612;27;21078;-69
2022/08/19 06:52:14;;;;;;;23.70;12.20;;;18.00;99.90;;;;;;5124904;27;20042;-69
2022/08/19 06:54:42;;;;;;;17.98;12.40;;;18.10;99.90;;;;;;5128293;27;20363;-69
2022/08/19 06:57:13;;;;;;;17.60;11.75;;;18.20;99.90;;;;;;5145207;27;20035;-69
2022/08/19 06:59:39;;;;;;;16.25;12.07;;;18.30;99.90;;;;;;5146673;27;20095;-69
2022/08/19 07:02:06;;;;;;;18.90;12.95;;;18.50;99.90;;;;;;5127346;27;20078;-69
2022/08/19 07:04:34;;;;;;;17.48;12.45;;;18.60;99.90;;;;;;5146031;27;20084;-69
2022/08/19 07:07:05;;;;;;;20.10;13.38;;;18.70;99.90;;;;;;5145528;27;20171;-69
2022/08/19 07:09:31;;;;;;;20.05;13.48;;;18.80;99.90;;;;;;5147545;27;20529;-69
2022/08/19 07:11:57;;;;;;;18.77;13.82;;;18.90;99.90;;;;;;5143827;27;20131;-69
2022/08/19 07:14:26;;;;;;;18.05;12.25;;;19.00;99.90;;;;;;5148520;27;20402;-69
2022/08/19 07:16:54;;;;;;;19.73;13.88;;;19.10;99.90;;;;;;5121002;27;20058;-69
2022/08/19 07:19:22;;;;;;;19.98;14.45;;;19.30;99.90;;;;;;5129705;27;20528;-70
2022/08/19 07:21:52;;;;;;;20.00;14.13;;;19.40;99.90;;;;;;5140345;27;20047;-69
2022/08/19 07:24:23;;;;;;;18.13;14.50;;;19.60;99.90;;;;;;5139661;27;20042;-69
2022/08/19 07:26:50;;;;;;;19.85;14.05;;;19.80;99.90;;;;;;5140157;27;20442;-69
2022/08/19 07:29:17;;;;;;;19.40;14.77;;;20.10;99.90;;;;;;5128294;27;20381;-70
2022/08/19 07:31:43;;;;;;;18.98;13.93;;;20.90;99.90;;;;;;5146853;27;20035;-70
2022/08/19 07:34:14;;;;;;;19.13;14.63;;;21.50;99.90;;;;;;5126396;27;20528;-70
2022/08/19 07:36:42;;;;;;;18.58;14.02;;;21.70;99.90;;;;;;5147079;27;20040;-70
2022/08/19 07:39:15;;;;;;;17.77;13.48;;;21.90;99.90;;;;;;5125640;27;20054;-70
2022/08/19 07:41:43;;;;;;;19.52;15.30;;;22.00;99.90;;;;;;5128616;27;20530;-70
2022/08/19 07:44:10;;;;;;;17.52;13.63;;;22.30;99.90;;;;;;5122061;27;20379;-70
2022/08/19 07:46:37;;;;;;;18.63;15.27;;;23.00;99.90;;;;;;5127383;27;20051;-71
2022/08/19 07:49:04;;;;;;;20.80;15.45;;;23.90;99.90;;;;;;5144311;27;20097;-71
2022/08/19 07:51:30;;;;;;;23.52;17.25;;;24.70;99.90;;;;;;5127068;27;20046;-70
2022/08/19 07:53:56;;;;;;;20.55;16.60;;;25.00;99.90;;;;;;5144877;27;20035;-70
2022/08/19 07:56:23;;;;;;;18.80;15.68;;;25.20;99.90;;;;;;5144667;27;20490;-70
2022/08/19 07:58:50;;;;;;;21.73;14.88;;;25.60;99.90;;;;;;5146835;27;20050;-71
2022/08/19 08:01:21;;;;;;;20.45;15.68;;;26.20;99.90;;;;;;5143028;27;20079;-71
2022/08/19 08:09:22;;;;;;;19.90;15.98;;;27.20;99.90;;;;;;5140727;27;20035;-70
2022/08/19 08:12:19;;;;;;;20.23;15.52;;;27.70;99.90;;;;;;5146408;27;20041;-70
2022/08/19 08:14:48;;;;;;;21.15;16.17;;;28.00;99.90;;;;;;5121029;27;20050;-70
2022/08/19 08:17:15;;;;;;;16.45;14.13;;;28.40;99.90;;;;;;5124866;27;20420;-72
2022/08/19 08:19:45;;;;;;;16.35;13.85;;;28.70;99.90;;;;;;5128409;27;20105;-70
2022/08/19 08:25:22;;;;;;;16.80;13.60;;;28.90;98.50;;;;;;5125295;27;20047;-71
2022/08/19 08:27:49;;;;;;;17.30;14.23;;;29.50;97.90;;;;;;5140098;27;20103;-71
2022/08/19 08:30:24;;;;;;;16.73;14.50;;;29.70;97.00;;;;;;5146708;27;20043;-71
2022/08/19 08:32:50;;;;;;;16.90;13.88;;;29.80;96.50;;;;;;5125403;27;20088;-69
2022/08/19 08:35:20;;;;;;;18.67;15.70;;;30.00;97.20;;;;;;5126792;27;20043;-70
2022/08/19 08:37:49;;;;;;;17.52;14.45;;;29.80;96.30;;;;;;5125284;27;20043;-70
2022/08/19 08:40:38;;;;;;;19.30;15.63;;;29.30;96.70;;;;;;5145855;27;20095;-71
2022/08/19 08:43:31;;;;;;;18.10;13.68;;;28.90;97.80;;;;;;5142329;27;20099;-71
2022/08/19 08:46:02;;;;;;;17.27;13.02;;;28.60;98.20;;;;;;5111600;27;20127;-71
2022/08/19 08:48:44;;;;;;;20.17;14.65;;;28.50;98.40;;;;;;5124454;27;20043;-70
2022/08/19 08:51:19;;;;;;;19.27;14.07;;;28.60;98.40;;;;;;5121135;27;20061;-70
2022/08/19 08:53:48;;;;;;;16.37;10.70;;;28.60;98.80;;;;;;5145155;27;20109;-70
2022/08/19 08:56:14;;;;;;;14.13;10.73;;;29.20;98.90;;;;;;5143135;27;20320;-70
2022/08/19 08:58:51;;;;;;;15.27;11.93;;;29.80;97.40;;;;;;5144317;27;20059;-71
2022/08/19 09:01:16;;;;;;;13.63;10.05;;;30.10;96.40;;;;;;5144143;27;20117;-71
2022/08/19 09:03:45;;;;;;;14.52;10.00;;;30.30;96.50;;;;;;5124072;27;20118;-70
2022/08/19 09:06:10;;;;;;;14.90;9.05;;;30.60;96.10;;;;;;5126443;27;20042;-70
2022/08/19 09:09:15;;;;;;;14.55;9.55;;;31.10;96.30;;;;;;5142274;27;20118;-70
2022/08/19 09:12:09;;;;;;;16.10;10.25;;;31.50;94.80;;;;;;5114643;27;20051;-70
2022/08/19 09:14:58;;;;;;;11.65;9.02;;;32.10;94.50;;;;;;5109176;27;20116;-70
2022/08/19 09:17:33;;;;;;;11.55;8.95;;;32.50;93.20;;;;;;5142417;27;20039;-71
2022/08/19 09:20:10;;;;;;;12.95;8.40;;;32.30;92.80;;;;;;5137802;27;20058;-71
2022/08/19 09:22:38;;;;;;;11.40;8.23;;;32.30;94.10;;;;;;5120876;27;20047;-70
2022/08/19 09:25:05;;;;;;;13.20;9.05;;;32.40;93.70;;;;;;5126233;27;20046;-70
2022/08/19 09:27:31;;;;;;;16.98;9.15;;;32.60;92.90;;;;;;5141808;27;20102;-70
2022/08/19 09:29:57;;;;;;;12.75;9.65;;;32.60;93.40;;;;;;5141170;27;20043;-70
2022/08/19 09:32:23;;;;;;;13.57;8.98;;;32.60;93.20;;;;;;5123415;27;20060;-70
2022/08/19 09:34:49;;;;;;;13.98;9.25;;;32.50;93.90;;;;;;5125960;27;20088;-70
2022/08/19 09:37:15;;;;;;;17.17;9.88;;;32.50;93.60;;;;;;5143134;27;20482;-71
2022/08/19 09:39:43;;;;;;;13.27;9.07;;;32.60;93.50;;;;;;5142596;27;20037;-70
2022/08/19 09:42:13;;;;;;;12.93;8.48;;;33.10;92.40;;;;;;5143819;27;20047;-70
2022/08/19 09:44:42;;;;;;;15.63;9.80;;;32.70;93.20;;;;;;5140241;27;20091;-70
2022/08/19 09:47:13;;;;;;;12.90;8.98;;;32.50;92.70;;;;;;5143498;27;20035;-71
2022/08/19 09:49:40;;;;;;;11.82;7.75;;;32.30;93.10;;;;;;5124756;27;20039;-71
2022/08/19 09:52:10;;;;;;;11.70;8.10;;;32.20;92.90;;;;;;5124750;27;20095;-70
2022/08/19 09:54:37;;;;;;;9.52;7.10;;;32.60;92.70;;;;;;5123729;27;20054;-71
2022/08/19 09:57:03;;;;;;;9.90;7.13;;;33.30;92.60;;;;;;5125440;27;20439;-71
2022/08/19 09:59:30;;;;;;;12.48;8.25;;;33.50;92.40;;;;;;5125641;27;20038;-70
2022/08/19 10:01:56;;;;;;;13.70;7.50;;;33.70;92.20;;;;;;5126221;27;20049;-71
2022/08/19 10:04:22;;;;;;;11.25;8.00;;;34.20;92.10;;;;;;5136866;27;20077;-71
2022/08/19 10:06:50;;;;;;;11.95;7.07;;;34.50;91.30;;;;;;5125290;27;20041;-70
2022/08/19 10:09:17;;;;;;;7.28;5.40;;;34.60;90.30;;;;;;5123827;27;20426;-70
2022/08/19 10:11:49;;;;;;;9.35;6.45;;;34.40;91.10;;;;;;5125409;27;20102;-71
2022/08/19 10:14:16;;;;;;;14.32;7.13;;;34.60;90.40;;;;;;5141307;27;20062;-70
2022/08/19 10:16:43;;;;;;;9.85;6.30;;;34.70;90.20;;;;;;5121404;27;20431;-70
2022/08/19 10:19:09;;;;;;;9.55;6.60;;;34.70;88.60;;;;;;5124104;27;20067;-70
2022/08/19 10:21:36;;;;;;;9.35;6.80;;;34.10;90.00;;;;;;5141671;27;20138;-70
2022/08/19 10:24:05;;;;;;;7.47;5.53;;;33.10;90.20;;;;;;5143246;27;20062;-70
2022/08/19 10:26:36;;;;;;;8.63;6.35;;;32.50;91.20;;;;;;5124077;27;20074;-70
2022/08/19 10:29:04;;;;;;;10.18;6.10;;;32.30;91.30;;;;;;5142492;27;20049;-70
2022/08/19 10:31:32;;;;;;;9.77;6.65;;;31.70;92.30;;;;;;5141739;27;20479;-70
2022/08/19 10:33:59;;;;;;;10.13;6.40;;;31.00;92.60;;;;;;5142239;27;20086;-69
2022/08/19 10:36:35;;;;;;;9.52;6.45;;;30.60;92.90;;;;;;5122830;27;20047;-69
2022/08/19 10:39:03;;;;;;;9.20;6.75;;;30.00;92.80;;;;;;5124801;27;20050;-69
2022/08/19 10:41:34;;;;;;;9.60;6.57;;;30.10;93.70;;;;;;5123344;27;20134;-70
2022/08/19 10:44:04;;;;;;;9.02;6.95;;;30.70;93.30;;;;;;5124428;27;20478;-69
2022/08/19 10:46:32;;;;;;;11.05;7.03;;;30.80;93.30;;;;;;5121837;27;20428;-69
2022/08/19 10:49:03;;;;;;;11.75;7.47;;;30.80;94.30;;;;;;5123764;27;20060;-69
2022/08/19 10:54:14;;;;;;;11.73;7.80;;;29.90;94.70;;;;;;5140754;27;20470;-70
2022/08/19 10:56:51;;;;;;;10.00;7.00;;;29.90;94.60;;;;;;5125152;27;20045;-69
2022/08/19 10:59:21;;;;;;;13.68;7.53;;;30.00;93.90;;;;;;5137314;27;20043;-69
2022/08/19 11:01:48;;;;;;;10.93;7.03;;;30.10;94.40;;;;;;5121788;27;20046;-69
2022/08/19 11:04:17;;;;;;;9.05;6.50;;;29.90;94.20;;;;;;5125507;27;20057;-69
2022/08/19 11:06:47;;;;;;;8.90;5.55;;;29.50;94.20;;;;;;5118569;28;20043;-69
2022/08/19 11:09:19;;;;;;;8.88;5.13;;;29.70;93.60;;;;;;5136121;27;20127;-69
2022/08/19 11:11:45;;;;;;;11.45;6.43;;;29.80;94.20;;;;;;5137508;27;20084;-69
2022/08/19 11:14:15;;;;;;;8.68;6.13;;;29.90;93.70;;;;;;5117693;28;20524;-69
2022/08/19 11:16:44;;;;;;;11.23;6.35;;;30.10;94.50;;;;;;5136050;27;20039;-69
2022/08/19 11:19:15;;;;;;;7.13;5.25;;;30.30;93.70;;;;;;5117640;28;20094;-69
2022/08/19 11:21:44;;;;;;;8.55;6.18;;;30.10;93.40;;;;;;5136673;27;20124;-69
2022/08/19 11:24:24;;;;;;;7.68;5.15;;;29.70;93.50;;;;;;5119348;27;20039;-69
2022/08/19 11:26:56;;;;;;;7.68;5.55;;;29.80;94.10;;;;;;5124813;27;20535;-69
2022/08/19 11:29:25;;;;;;;8.18;5.07;;;29.80;94.00;;;;;;5128266;27;20049;-69
2022/08/19 11:31:53;;;;;;;9.15;4.97;;;29.90;93.90;;;;;;5128638;27;20038;-69
2022/08/19 11:34:21;;;;;;;7.45;4.90;;;29.80;93.70;;;;;;5145049;27;20047;-69
2022/08/19 11:36:49;;;;;;;7.10;5.80;;;29.70;93.90;;;;;;5127605;27;20112;-70
2022/08/19 11:39:17;;;;;;;9.77;6.70;;;29.60;94.40;;;;;;5125424;27;20031;-69
2022/08/19 11:41:43;;;;;;;11.38;7.30;;;29.60;94.60;;;;;;5128954;27;20038;-70
2022/08/19 11:44:09;;;;;;;8.93;6.40;;;29.60;94.40;;;;;;5124174;27;20046;-70
2022/08/19 11:46:37;;;;;;;9.77;6.68;;;29.50;94.50;;;;;;5122762;27;20061;-69
2022/08/19 11:49:05;;;;;;;6.63;4.15;;;29.40;94.60;;;;;;5147023;27;20481;-69
2022/08/19 11:51:31;;;;;;;6.72;4.50;;;29.20;93.50;;;;;;5144036;27;20140;-69
2022/08/19 11:53:58;;;;;;;8.73;4.07;;;29.00;93.30;;;;;;5146553;27;20042;-69
2022/08/19 11:56:25;;;;;;;8.35;4.85;;;28.90;94.10;;;;;;5144827;27;20046;-68
2022/08/19 11:58:52;;;;;;;6.85;5.00;;;28.90;94.50;;;;;;5144946;27;20038;-69
2022/08/19 12:01:20;;;;;;;7.53;4.45;;;28.70;95.00;;;;;;5142072;27;20047;-69
2022/08/19 12:03:47;;;;;;;6.75;5.13;;;28.60;95.20;;;;;;5142703;27;20031;-68
2022/08/19 12:06:16;;;;;;;9.23;5.00;;;28.70;94.90;;;;;;5126869;27;20053;-70
2022/08/19 12:08:43;;;;;;;9.68;5.70;;;28.30;95.50;;;;;;5144877;27;20076;-69
2022/08/19 12:11:13;;;;;;;9.38;5.93;;;28.20;95.80;;;;;;5127858;27;20430;-69
2022/08/19 12:13:39;;;;;;;9.05;6.38;;;28.30;96.20;;;;;;5143579;27;20046;-69
2022/08/19 12:16:14;;;;;;;9.48;6.18;;;28.00;96.20;;;;;;5123610;27;20035;-69
2022/08/19 12:18:46;;;;;;;10.50;6.97;;;28.00;96.40;;;;;;5126572;27;20493;-69
2022/08/19 12:21:20;;;;;;;8.82;5.63;;;27.90;96.20;;;;;;5144271;27;20125;-69
2022/08/19 12:23:48;;;;;;;13.67;5.63;;;28.00;96.50;;;;;;5126842;27;20053;-69
2022/08/19 12:26:14;;;;;;;8.63;5.97;;;27.90;96.20;;;;;;5144282;27;20047;-69
2022/08/19 12:28:43;;;;;;;10.68;7.78;;;27.90;96.60;;;;;;5126073;27;20168;-69
2022/08/19 12:31:11;;;;;;;12.90;8.45;;;27.50;96.80;;;;;;5122525;27;20051;-69
2022/08/19 12:33:40;;;;;;;9.93;7.30;;;27.40;97.10;;;;;;5126699;27;20030;-69
2022/08/19 12:36:07;;;;;;;10.70;7.45;;;27.40;97.60;;;;;;5143302;27;20042;-69
2022/08/19 12:38:36;;;;;;;10.40;7.05;;;27.60;97.50;;;;;;5127898;27;20042;-69
2022/08/19 12:41:05;;;;;;;9.50;7.32;;;27.50;97.50;;;;;;5142153;27;20047;-69
2022/08/19 12:43:32;;;;;;;9.65;7.15;;;27.60;97.50;;;;;;5146085;27;20070;-69
2022/08/19 12:45:58;;;;;;;9.82;7.28;;;27.70;97.80;;;;;;5123426;27;20474;-69
2022/08/19 12:48:26;;;;;;;11.70;7.85;;;28.50;97.60;;;;;;5145788;27;20091;-69
2022/08/19 12:50:52;;;;;;;10.80;7.57;;;29.10;95.80;;;;;;5124105;27;20050;-69
2022/08/19 12:53:18;;;;;;;9.25;7.40;;;29.10;95.20;;;;;;5127806;27;20122;-69
2022/08/19 12:55:43;;;;;;;10.43;7.97;;;28.70;95.80;;;;;;5124579;27;20046;-69
2022/08/19 12:58:09;;;;;;;10.15;7.45;;;28.50;96.20;;;;;;5144141;27;20095;-69
2022/08/19 13:00:35;;;;;;;8.52;7.20;;;28.40;96.20;;;;;;5143113;27;20084;-68
2022/08/19 13:03:01;;;;;;;8.57;6.63;;;28.40;96.40;;;;;;5144222;27;20049;-69
2022/08/19 13:05:30;;;;;;;8.90;6.85;;;28.60;96.20;;;;;;5142610;27;20082;-70